sensor_id;sensor_type;location;lat;lon;timestamp;P1;durP1;ratioP1;P2;durP2;ratioP2
39612;SDS011;25303;48.896;13.342;2023-03-09T00:00:20;3.30;;;1.60;;
39612;SDS011;25303;48.896;13.342;2023-03-09T00:03:04;3.47;;;1.70;;
39612;SDS011;25303;48.896;13.342;2023-03-09T00:05:58;2.75;;;1.90;;
39612;SDS011;25303;48.896;13.342;2023-03-09T00:08:41;3.05;;;1.98;;
39612;SDS011;25303;48.896;13.342;2023-03-09T00:11:25;2.78;;;1.90;;
39612;SDS011;25303;48.896;13.342;2023-03-09T00:14:08;2.72;;;1.80;;
39612;SDS011;25303;48.896;13.342;2023-03-09T00:16:51;3.50;;;1.63;;
39612;SDS011;25303;48.896;13.342;2023-03-09T00:19:34;5.00;;;2.00;;
39612;SDS011;25303;48.896;13.342;2023-03-09T00:22:18;3.20;;;2.08;;
39612;SDS011;25303;48.896;13.342;2023-03-09T00:25:01;3.25;;;2.20;;
39612;SDS011;25303;48.896;13.342;2023-03-09T00:27:46;2.35;;;1.70;;
39612;SDS011;25303;48.896;13.342;2023-03-09T00:30:29;3.08;;;1.90;;
39612;SDS011;25303;48.896;13.342;2023-03-09T00:33:14;2.78;;;1.85;;
39612;SDS011;25303;48.896;13.342;2023-03-09T00:35:57;2.00;;;1.48;;
39612;SDS011;25303;48.896;13.342;2023-03-09T00:38:44;2.08;;;1.52;;
39612;SDS011;25303;48.896;13.342;2023-03-09T00:41:32;3.45;;;2.08;;
39612;SDS011;25303;48.896;13.342;2023-03-09T00:44:15;2.35;;;1.65;;
39612;SDS011;25303;48.896;13.342;2023-03-09T00:46:58;3.08;;;1.90;;
39612;SDS011;25303;48.896;13.342;2023-03-09T00:49:41;2.42;;;1.70;;
39612;SDS011;25303;48.896;13.342;2023-03-09T00:52:24;3.58;;;1.70;;
39612;SDS011;25303;48.896;13.342;2023-03-09T00:55:09;1.90;;;1.45;;
39612;SDS011;25303;48.896;13.342;2023-03-09T00:57:52;3.00;;;1.73;;
39612;SDS011;25303;48.896;13.342;2023-03-09T01:00:36;2.15;;;1.70;;
39612;SDS011;25303;48.896;13.342;2023-03-09T01:03:19;1.98;;;1.40;;
39612;SDS011;25303;48.896;13.342;2023-03-09T01:06:02;2.83;;;1.73;;
39612;SDS011;25303;48.896;13.342;2023-03-09T01:08:45;2.10;;;1.60;;
39612;SDS011;25303;48.896;13.342;2023-03-09T01:11:30;3.38;;;1.65;;
39612;SDS011;25303;48.896;13.342;2023-03-09T01:14:13;4.55;;;1.55;;
39612;SDS011;25303;48.896;13.342;2023-03-09T01:16:56;1.90;;;1.30;;
39612;SDS011;25303;48.896;13.342;2023-03-09T01:19:38;1.92;;;1.30;;
39612;SDS011;25303;48.896;13.342;2023-03-09T01:22:21;1.73;;;1.20;;
39612;SDS011;25303;48.896;13.342;2023-03-09T01:25:04;0.80;;;0.70;;
39612;SDS011;25303;48.896;13.342;2023-03-09T01:27:49;0.93;;;0.70;;
39612;SDS011;25303;48.896;13.342;2023-03-09T01:30:33;0.63;;;0.60;;
39612;SDS011;25303;48.896;13.342;2023-03-09T01:33:15;0.88;;;0.60;;
39612;SDS011;25303;48.896;13.342;2023-03-09T01:35:58;0.95;;;0.60;;
39612;SDS011;25303;48.896;13.342;2023-03-09T01:38:44;0.77;;;0.60;;
39612;SDS011;25303;48.896;13.342;2023-03-09T01:41:27;0.90;;;0.60;;
39612;SDS011;25303;48.896;13.342;2023-03-09T01:44:12;0.98;;;0.70;;
39612;SDS011;25303;48.896;13.342;2023-03-09T01:46:56;0.80;;;0.60;;
39612;SDS011;25303;48.896;13.342;2023-03-09T01:49:41;0.75;;;0.65;;
39612;SDS011;25303;48.896;13.342;2023-03-09T01:52:28;1.02;;;0.55;;
39612;SDS011;25303;48.896;13.342;2023-03-09T01:55:16;0.80;;;0.55;;
39612;SDS011;25303;48.896;13.342;2023-03-09T01:58:04;0.90;;;0.70;;
39612;SDS011;25303;48.896;13.342;2023-03-09T02:00:52;1.50;;;1.00;;
39612;SDS011;25303;48.896;13.342;2023-03-09T02:03:38;2.03;;;1.20;;
39612;SDS011;25303;48.896;13.342;2023-03-09T02:06:24;2.30;;;1.55;;
39612;SDS011;25303;48.896;13.342;2023-03-09T02:09:11;10.43;;;1.97;;
39612;SDS011;25303;48.896;13.342;2023-03-09T02:12:00;96.57;;;3.90;;
39612;SDS011;25303;48.896;13.342;2023-03-09T02:14:46;4.15;;;2.40;;
39612;SDS011;25303;48.896;13.342;2023-03-09T02:17:30;188.88;;;5.80;;
39612;SDS011;25303;48.896;13.342;2023-03-09T02:20:16;5.47;;;2.30;;
39612;SDS011;25303;48.896;13.342;2023-03-09T02:23:03;3.67;;;2.15;;
39612;SDS011;25303;48.896;13.342;2023-03-09T02:25:51;4.03;;;2.40;;
39612;SDS011;25303;48.896;13.342;2023-03-09T02:28:40;5.03;;;2.58;;
39612;SDS011;25303;48.896;13.342;2023-03-09T02:31:23;3.08;;;2.22;;
39612;SDS011;25303;48.896;13.342;2023-03-09T02:34:06;3.30;;;2.40;;
39612;SDS011;25303;48.896;13.342;2023-03-09T02:36:51;5.07;;;3.28;;
39612;SDS011;25303;48.896;13.342;2023-03-09T02:39:37;5.28;;;3.33;;
39612;SDS011;25303;48.896;13.342;2023-03-09T02:42:25;8.88;;;3.15;;
39612;SDS011;25303;48.896;13.342;2023-03-09T02:45:11;5.55;;;2.85;;
39612;SDS011;25303;48.896;13.342;2023-03-09T02:47:57;8.90;;;2.90;;
39612;SDS011;25303;48.896;13.342;2023-03-09T02:50:41;2.70;;;2.28;;
39612;SDS011;25303;48.896;13.342;2023-03-09T02:53:25;4.40;;;2.35;;
39612;SDS011;25303;48.896;13.342;2023-03-09T02:56:09;3.10;;;2.20;;
39612;SDS011;25303;48.896;13.342;2023-03-09T02:58:52;3.67;;;2.35;;
39612;SDS011;25303;48.896;13.342;2023-03-09T03:01:37;4.60;;;2.50;;
39612;SDS011;25303;48.896;13.342;2023-03-09T03:04:19;3.05;;;2.42;;
39612;SDS011;25303;48.896;13.342;2023-03-09T03:07:04;3.53;;;2.00;;
39612;SDS011;25303;48.896;13.342;2023-03-09T03:09:48;3.35;;;2.00;;
39612;SDS011;25303;48.896;13.342;2023-03-09T03:12:31;3.05;;;2.00;;
39612;SDS011;25303;48.896;13.342;2023-03-09T03:15:14;2.20;;;1.70;;
39612;SDS011;25303;48.896;13.342;2023-03-09T03:17:59;3.40;;;1.50;;
39612;SDS011;25303;48.896;13.342;2023-03-09T03:20:42;1.95;;;1.40;;
39612;SDS011;25303;48.896;13.342;2023-03-09T03:23:26;3.22;;;1.48;;
39612;SDS011;25303;48.896;13.342;2023-03-09T03:26:10;2.30;;;1.42;;
39612;SDS011;25303;48.896;13.342;2023-03-09T03:28:58;2.67;;;1.20;;
39612;SDS011;25303;48.896;13.342;2023-03-09T03:31:43;1.75;;;0.88;;
39612;SDS011;25303;48.896;13.342;2023-03-09T03:34:27;1.40;;;0.77;;
39612;SDS011;25303;48.896;13.342;2023-03-09T03:37:10;2.30;;;0.88;;
39612;SDS011;25303;48.896;13.342;2023-03-09T03:39:55;1.67;;;0.80;;
39612;SDS011;25303;48.896;13.342;2023-03-09T03:42:38;1.30;;;0.80;;
39612;SDS011;25303;48.896;13.342;2023-03-09T03:45:23;2.42;;;0.80;;
39612;SDS011;25303;48.896;13.342;2023-03-09T03:48:07;3.05;;;1.00;;
39612;SDS011;25303;48.896;13.342;2023-03-09T03:50:51;1.60;;;0.93;;
39612;SDS011;25303;48.896;13.342;2023-03-09T03:56:18;1.20;;;0.90;;
39612;SDS011;25303;48.896;13.342;2023-03-09T03:59:02;4.15;;;0.88;;
39612;SDS011;25303;48.896;13.342;2023-03-09T04:01:49;2.50;;;0.90;;
39612;SDS011;25303;48.896;13.342;2023-03-09T04:04:32;1.40;;;0.57;;
39612;SDS011;25303;48.896;13.342;2023-03-09T04:07:22;1.65;;;0.50;;
39612;SDS011;25303;48.896;13.342;2023-03-09T04:10:05;2.20;;;0.50;;
39612;SDS011;25303;48.896;13.342;2023-03-09T04:12:54;1.92;;;0.38;;
39612;SDS011;25303;48.896;13.342;2023-03-09T04:15:37;1.75;;;0.50;;
39612;SDS011;25303;48.896;13.342;2023-03-09T04:18:20;0.80;;;0.35;;
39612;SDS011;25303;48.896;13.342;2023-03-09T04:21:04;0.93;;;0.47;;
39612;SDS011;25303;48.896;13.342;2023-03-09T04:23:48;2.42;;;0.35;;
39612;SDS011;25303;48.896;13.342;2023-03-09T04:26:31;0.75;;;0.40;;
39612;SDS011;25303;48.896;13.342;2023-03-09T04:29:21;0.40;;;0.20;;
39612;SDS011;25303;48.896;13.342;2023-03-09T04:32:05;0.55;;;0.30;;
39612;SDS011;25303;48.896;13.342;2023-03-09T04:34:49;0.77;;;0.30;;
39612;SDS011;25303;48.896;13.342;2023-03-09T04:37:33;0.43;;;0.20;;
39612;SDS011;25303;48.896;13.342;2023-03-09T04:40:18;0.22;;;0.20;;
39612;SDS011;25303;48.896;13.342;2023-03-09T04:43:04;1.23;;;0.32;;
39612;SDS011;25303;48.896;13.342;2023-03-09T04:45:48;0.88;;;0.30;;
39612;SDS011;25303;48.896;13.342;2023-03-09T04:48:31;0.52;;;0.20;;
39612;SDS011;25303;48.896;13.342;2023-03-09T04:51:15;0.63;;;0.30;;
39612;SDS011;25303;48.896;13.342;2023-03-09T04:53:59;0.50;;;0.20;;
39612;SDS011;25303;48.896;13.342;2023-03-09T04:56:43;0.65;;;0.40;;
39612;SDS011;25303;48.896;13.342;2023-03-09T04:59:30;0.47;;;0.30;;
39612;SDS011;25303;48.896;13.342;2023-03-09T05:02:14;0.20;;;0.20;;
39612;SDS011;25303;48.896;13.342;2023-03-09T05:05:00;0.43;;;0.20;;
39612;SDS011;25303;48.896;13.342;2023-03-09T05:07:43;0.77;;;0.30;;
39612;SDS011;25303;48.896;13.342;2023-03-09T05:10:26;0.40;;;0.40;;
39612;SDS011;25303;48.896;13.342;2023-03-09T05:13:13;0.68;;;0.38;;
39612;SDS011;25303;48.896;13.342;2023-03-09T05:15:56;0.40;;;0.30;;
39612;SDS011;25303;48.896;13.342;2023-03-09T05:18:40;0.50;;;0.30;;
39612;SDS011;25303;48.896;13.342;2023-03-09T05:21:24;0.82;;;0.50;;
39612;SDS011;25303;48.896;13.342;2023-03-09T05:24:09;0.82;;;0.50;;
39612;SDS011;25303;48.896;13.342;2023-03-09T05:26:52;0.90;;;0.52;;
39612;SDS011;25303;48.896;13.342;2023-03-09T05:29:41;2.42;;;0.82;;
39612;SDS011;25303;48.896;13.342;2023-03-09T05:32:25;1.13;;;0.70;;
39612;SDS011;25303;48.896;13.342;2023-03-09T05:35:08;0.95;;;0.70;;
39612;SDS011;25303;48.896;13.342;2023-03-09T05:37:53;0.95;;;0.60;;
39612;SDS011;25303;48.896;13.342;2023-03-09T05:40:39;1.48;;;0.70;;
39612;SDS011;25303;48.896;13.342;2023-03-09T05:43:24;0.95;;;0.55;;
39612;SDS011;25303;48.896;13.342;2023-03-09T05:46:09;0.68;;;0.65;;
39612;SDS011;25303;48.896;13.342;2023-03-09T05:48:52;0.88;;;0.73;;
39612;SDS011;25303;48.896;13.342;2023-03-09T05:51:36;1.70;;;0.73;;
39612;SDS011;25303;48.896;13.342;2023-03-09T05:54:19;1.58;;;0.80;;
39612;SDS011;25303;48.896;13.342;2023-03-09T05:59:48;1.20;;;0.70;;
39612;SDS011;25303;48.896;13.342;2023-03-09T06:02:33;1.05;;;0.80;;
39612;SDS011;25303;48.896;13.342;2023-03-09T06:05:16;1.45;;;0.68;;
39612;SDS011;25303;48.896;13.342;2023-03-09T06:07:59;1.02;;;0.70;;
39612;SDS011;25303;48.896;13.342;2023-03-09T06:10:44;0.75;;;0.50;;
39612;SDS011;25303;48.896;13.342;2023-03-09T06:13:29;1.42;;;0.65;;
39612;SDS011;25303;48.896;13.342;2023-03-09T06:18:59;1.17;;;0.60;;
39612;SDS011;25303;48.896;13.342;2023-03-09T06:21:42;0.80;;;0.70;;
39612;SDS011;25303;48.896;13.342;2023-03-09T06:24:26;0.77;;;0.65;;
39612;SDS011;25303;48.896;13.342;2023-03-09T06:27:10;0.90;;;0.50;;
39612;SDS011;25303;48.896;13.342;2023-03-09T06:29:53;1.02;;;0.60;;
39612;SDS011;25303;48.896;13.342;2023-03-09T06:32:36;1.58;;;0.80;;
39612;SDS011;25303;48.896;13.342;2023-03-09T06:35:21;1.63;;;0.55;;
39612;SDS011;25303;48.896;13.342;2023-03-09T06:38:04;1.33;;;0.50;;
39612;SDS011;25303;48.896;13.342;2023-03-09T06:40:47;1.98;;;0.50;;
39612;SDS011;25303;48.896;13.342;2023-03-09T06:43:31;1.58;;;0.52;;
39612;SDS011;25303;48.896;13.342;2023-03-09T06:46:14;1.65;;;0.60;;
39612;SDS011;25303;48.896;13.342;2023-03-09T06:48:57;1.20;;;0.50;;
39612;SDS011;25303;48.896;13.342;2023-03-09T06:51:44;3.22;;;0.50;;
39612;SDS011;25303;48.896;13.342;2023-03-09T06:54:27;2.30;;;0.50;;
39612;SDS011;25303;48.896;13.342;2023-03-09T06:57:31;1.42;;;0.40;;
39612;SDS011;25303;48.896;13.342;2023-03-09T07:00:14;0.73;;;0.40;;
39612;SDS011;25303;48.896;13.342;2023-03-09T07:03:01;0.68;;;0.32;;
39612;SDS011;25303;48.896;13.342;2023-03-09T07:05:44;1.30;;;0.45;;
39612;SDS011;25303;48.896;13.342;2023-03-09T07:08:28;1.15;;;0.40;;
39612;SDS011;25303;48.896;13.342;2023-03-09T07:11:11;0.82;;;0.30;;
39612;SDS011;25303;48.896;13.342;2023-03-09T07:13:54;2.65;;;0.40;;
39612;SDS011;25303;48.896;13.342;2023-03-09T07:16:37;0.43;;;0.30;;
39612;SDS011;25303;48.896;13.342;2023-03-09T07:19:21;0.43;;;0.30;;
39612;SDS011;25303;48.896;13.342;2023-03-09T07:22:05;1.60;;;0.30;;
39612;SDS011;25303;48.896;13.342;2023-03-09T07:24:50;0.50;;;0.40;;
39612;SDS011;25303;48.896;13.342;2023-03-09T07:27:33;0.98;;;0.40;;
39612;SDS011;25303;48.896;13.342;2023-03-09T07:30:16;0.60;;;0.40;;
39612;SDS011;25303;48.896;13.342;2023-03-09T07:32:59;0.30;;;0.30;;
39612;SDS011;25303;48.896;13.342;2023-03-09T07:35:42;1.02;;;0.40;;
39612;SDS011;25303;48.896;13.342;2023-03-09T07:38:25;0.73;;;0.40;;
39612;SDS011;25303;48.896;13.342;2023-03-09T07:41:09;0.60;;;0.35;;
39612;SDS011;25303;48.896;13.342;2023-03-09T07:43:52;1.45;;;0.40;;
39612;SDS011;25303;48.896;13.342;2023-03-09T07:46:38;0.77;;;0.40;;
39612;SDS011;25303;48.896;13.342;2023-03-09T07:49:21;1.05;;;0.40;;
39612;SDS011;25303;48.896;13.342;2023-03-09T07:52:04;0.93;;;0.32;;
39612;SDS011;25303;48.896;13.342;2023-03-09T07:54:49;0.60;;;0.40;;
39612;SDS011;25303;48.896;13.342;2023-03-09T07:57:34;0.73;;;0.40;;
39612;SDS011;25303;48.896;13.342;2023-03-09T08:00:17;0.68;;;0.30;;
39612;SDS011;25303;48.896;13.342;2023-03-09T08:03:04;0.60;;;0.40;;
39612;SDS011;25303;48.896;13.342;2023-03-09T08:05:47;2.25;;;0.60;;
39612;SDS011;25303;48.896;13.342;2023-03-09T08:08:31;0.82;;;0.50;;
39612;SDS011;25303;48.896;13.342;2023-03-09T08:11:15;0.70;;;0.47;;
39612;SDS011;25303;48.896;13.342;2023-03-09T08:14:00;1.17;;;0.50;;
39612;SDS011;25303;48.896;13.342;2023-03-09T08:16:42;0.40;;;0.40;;
39612;SDS011;25303;48.896;13.342;2023-03-09T08:19:25;1.10;;;0.60;;
39612;SDS011;25303;48.896;13.342;2023-03-09T08:22:08;0.73;;;0.60;;
39612;SDS011;25303;48.896;13.342;2023-03-09T08:24:51;1.38;;;0.60;;
39612;SDS011;25303;48.896;13.342;2023-03-09T08:27:37;1.70;;;0.60;;
39612;SDS011;25303;48.896;13.342;2023-03-09T08:30:22;1.23;;;0.50;;
39612;SDS011;25303;48.896;13.342;2023-03-09T08:33:05;0.90;;;0.50;;
39612;SDS011;25303;48.896;13.342;2023-03-09T08:35:48;1.08;;;0.70;;
39612;SDS011;25303;48.896;13.342;2023-03-09T08:38:31;1.85;;;0.60;;
39612;SDS011;25303;48.896;13.342;2023-03-09T08:41:14;1.00;;;0.60;;
39612;SDS011;25303;48.896;13.342;2023-03-09T08:43:58;1.52;;;0.80;;
39612;SDS011;25303;48.896;13.342;2023-03-09T08:46:43;1.65;;;0.90;;
39612;SDS011;25303;48.896;13.342;2023-03-09T08:49:26;5.32;;;1.00;;
39612;SDS011;25303;48.896;13.342;2023-03-09T08:52:09;2.83;;;0.73;;
39612;SDS011;25303;48.896;13.342;2023-03-09T08:54:51;2.00;;;0.90;;
39612;SDS011;25303;48.896;13.342;2023-03-09T08:57:34;2.78;;;0.70;;
39612;SDS011;25303;48.896;13.342;2023-03-09T09:00:18;2.08;;;0.93;;
39612;SDS011;25303;48.896;13.342;2023-03-09T09:03:02;1.98;;;0.77;;
39612;SDS011;25303;48.896;13.342;2023-03-09T09:05:45;5.47;;;0.80;;
39612;SDS011;25303;48.896;13.342;2023-03-09T09:08:28;4.63;;;0.90;;
39612;SDS011;25303;48.896;13.342;2023-03-09T09:11:12;2.47;;;1.10;;
39612;SDS011;25303;48.896;13.342;2023-03-09T09:13:56;2.00;;;1.10;;
39612;SDS011;25303;48.896;13.342;2023-03-09T09:16:39;5.68;;;1.15;;
39612;SDS011;25303;48.896;13.342;2023-03-09T09:19:24;2.08;;;1.00;;
39612;SDS011;25303;48.896;13.342;2023-03-09T09:24:50;7.40;;;0.85;;
39612;SDS011;25303;48.896;13.342;2023-03-09T09:27:33;5.38;;;1.10;;
39612;SDS011;25303;48.896;13.342;2023-03-09T09:30:16;3.95;;;1.13;;
39612;SDS011;25303;48.896;13.342;2023-03-09T09:32:59;5.57;;;1.02;;
39612;SDS011;25303;48.896;13.342;2023-03-09T09:35:48;8.18;;;1.15;;
39612;SDS011;25303;48.896;13.342;2023-03-09T09:38:37;2.83;;;1.13;;
39612;SDS011;25303;48.896;13.342;2023-03-09T09:41:22;3.80;;;1.15;;
39612;SDS011;25303;48.896;13.342;2023-03-09T09:44:10;7.72;;;1.00;;
39612;SDS011;25303;48.896;13.342;2023-03-09T09:46:58;9.77;;;1.40;;
39612;SDS011;25303;48.896;13.342;2023-03-09T09:49:46;6.65;;;1.10;;
39612;SDS011;25303;48.896;13.342;2023-03-09T09:52:38;6.35;;;1.20;;
39612;SDS011;25303;48.896;13.342;2023-03-09T09:55:29;4.78;;;1.08;;
39612;SDS011;25303;48.896;13.342;2023-03-09T09:58:20;4.57;;;0.98;;
39612;SDS011;25303;48.896;13.342;2023-03-09T10:04:00;5.97;;;1.33;;
39612;SDS011;25303;48.896;13.342;2023-03-09T10:06:47;5.22;;;1.00;;
39612;SDS011;25303;48.896;13.342;2023-03-09T10:09:32;7.00;;;1.10;;
39612;SDS011;25303;48.896;13.342;2023-03-09T10:12:32;6.45;;;1.20;;
39612;SDS011;25303;48.896;13.342;2023-03-09T10:15:17;8.48;;;1.33;;
39612;SDS011;25303;48.896;13.342;2023-03-09T10:18:05;4.40;;;1.10;;
39612;SDS011;25303;48.896;13.342;2023-03-09T10:20:53;7.88;;;1.20;;
39612;SDS011;25303;48.896;13.342;2023-03-09T10:23:36;6.20;;;1.20;;
39612;SDS011;25303;48.896;13.342;2023-03-09T10:26:38;8.48;;;1.08;;
39612;SDS011;25303;48.896;13.342;2023-03-09T10:32:12;6.25;;;1.30;;
39612;SDS011;25303;48.896;13.342;2023-03-09T10:35:02;6.38;;;1.33;;
39612;SDS011;25303;48.896;13.342;2023-03-09T10:37:54;9.35;;;1.40;;
39612;SDS011;25303;48.896;13.342;2023-03-09T10:40:40;7.70;;;1.80;;
39612;SDS011;25303;48.896;13.342;2023-03-09T10:43:26;5.57;;;1.20;;
39612;SDS011;25303;48.896;13.342;2023-03-09T10:46:12;7.85;;;1.40;;
39612;SDS011;25303;48.896;13.342;2023-03-09T10:51:58;6.28;;;1.60;;
39612;SDS011;25303;48.896;13.342;2023-03-09T10:54:43;7.88;;;1.40;;
39612;SDS011;25303;48.896;13.342;2023-03-09T10:57:27;6.15;;;1.30;;
39612;SDS011;25303;48.896;13.342;2023-03-09T11:00:14;5.80;;;1.38;;
39612;SDS011;25303;48.896;13.342;2023-03-09T11:02:58;4.47;;;1.10;;
39612;SDS011;25303;48.896;13.342;2023-03-09T11:08:25;6.50;;;1.23;;
39612;SDS011;25303;48.896;13.342;2023-03-09T11:11:21;6.35;;;1.13;;
39612;SDS011;25303;48.896;13.342;2023-03-09T11:14:18;4.72;;;1.13;;
39612;SDS011;25303;48.896;13.342;2023-03-09T11:17:13;5.03;;;1.20;;
39612;SDS011;25303;48.896;13.342;2023-03-09T11:20:30;7.13;;;1.55;;
39612;SDS011;25303;48.896;13.342;2023-03-09T11:23:16;12.80;;;1.65;;
39612;SDS011;25303;48.896;13.342;2023-03-09T11:26:08;14.27;;;1.50;;
39612;SDS011;25303;48.896;13.342;2023-03-09T11:28:58;4.80;;;1.60;;
39612;SDS011;25303;48.896;13.342;2023-03-09T11:31:46;8.13;;;1.50;;
39612;SDS011;25303;48.896;13.342;2023-03-09T11:34:32;6.03;;;1.27;;
39612;SDS011;25303;48.896;13.342;2023-03-09T11:37:16;5.43;;;1.65;;
39612;SDS011;25303;48.896;13.342;2023-03-09T11:40:03;5.75;;;1.00;;
39612;SDS011;25303;48.896;13.342;2023-03-09T11:42:53;5.55;;;1.35;;
39612;SDS011;25303;48.896;13.342;2023-03-09T11:45:41;6.72;;;1.33;;
39612;SDS011;25303;48.896;13.342;2023-03-09T11:48:25;6.07;;;1.10;;
39612;SDS011;25303;48.896;13.342;2023-03-09T11:51:15;6.40;;;0.90;;
39612;SDS011;25303;48.896;13.342;2023-03-09T11:54:05;3.53;;;0.88;;
39612;SDS011;25303;48.896;13.342;2023-03-09T11:56:56;4.03;;;1.10;;
39612;SDS011;25303;48.896;13.342;2023-03-09T11:59:44;6.05;;;1.02;;
39612;SDS011;25303;48.896;13.342;2023-03-09T12:02:33;4.47;;;0.90;;
39612;SDS011;25303;48.896;13.342;2023-03-09T12:05:20;5.13;;;1.17;;
39612;SDS011;25303;48.896;13.342;2023-03-09T12:10:54;3.95;;;0.90;;
39612;SDS011;25303;48.896;13.342;2023-03-09T12:13:43;3.67;;;0.82;;
39612;SDS011;25303;48.896;13.342;2023-03-09T12:16:31;8.40;;;1.33;;
39612;SDS011;25303;48.896;13.342;2023-03-09T12:19:18;4.35;;;1.00;;
39612;SDS011;25303;48.896;13.342;2023-03-09T12:22:04;7.10;;;1.15;;
39612;SDS011;25303;48.896;13.342;2023-03-09T12:24:54;5.00;;;1.20;;
39612;SDS011;25303;48.896;13.342;2023-03-09T12:27:44;4.70;;;1.20;;
39612;SDS011;25303;48.896;13.342;2023-03-09T12:30:31;8.95;;;2.05;;
39612;SDS011;25303;48.896;13.342;2023-03-09T12:33:16;4.15;;;1.40;;
39612;SDS011;25303;48.896;13.342;2023-03-09T12:36:38;5.70;;;1.20;;
39612;SDS011;25303;48.896;13.342;2023-03-09T12:39:41;2.60;;;0.88;;
39612;SDS011;25303;48.896;13.342;2023-03-09T12:42:27;3.72;;;0.88;;
39612;SDS011;25303;48.896;13.342;2023-03-09T12:45:25;5.78;;;1.00;;
39612;SDS011;25303;48.896;13.342;2023-03-09T12:48:19;5.28;;;1.00;;
39612;SDS011;25303;48.896;13.342;2023-03-09T12:51:05;3.88;;;1.00;;
39612;SDS011;25303;48.896;13.342;2023-03-09T12:53:57;7.07;;;1.35;;
39612;SDS011;25303;48.896;13.342;2023-03-09T12:56:40;7.10;;;1.30;;
39612;SDS011;25303;48.896;13.342;2023-03-09T12:59:24;2.45;;;0.95;;
39612;SDS011;25303;48.896;13.342;2023-03-09T13:02:31;4.00;;;1.10;;
39612;SDS011;25303;48.896;13.342;2023-03-09T13:05:19;6.10;;;1.00;;
39612;SDS011;25303;48.896;13.342;2023-03-09T13:08:16;3.00;;;0.82;;
39612;SDS011;25303;48.896;13.342;2023-03-09T13:11:27;4.40;;;0.88;;
39612;SDS011;25303;48.896;13.342;2023-03-09T13:14:13;6.35;;;1.08;;
39612;SDS011;25303;48.896;13.342;2023-03-09T13:17:01;3.75;;;0.70;;
39612;SDS011;25303;48.896;13.342;2023-03-09T13:19:48;1.98;;;0.40;;
39612;SDS011;25303;48.896;13.342;2023-03-09T13:22:36;2.50;;;0.52;;
39612;SDS011;25303;48.896;13.342;2023-03-09T13:28:38;2.53;;;0.52;;
39612;SDS011;25303;48.896;13.342;2023-03-09T13:31:27;1.58;;;0.57;;
39612;SDS011;25303;48.896;13.342;2023-03-09T13:34:14;1.20;;;0.30;;
39612;SDS011;25303;48.896;13.342;2023-03-09T13:37:00;1.85;;;0.50;;
39612;SDS011;25303;48.896;13.342;2023-03-09T13:39:57;2.38;;;0.50;;
39612;SDS011;25303;48.896;13.342;2023-03-09T13:42:42;2.75;;;0.47;;
39612;SDS011;25303;48.896;13.342;2023-03-09T13:45:27;2.53;;;0.50;;
39612;SDS011;25303;48.896;13.342;2023-03-09T13:48:12;3.25;;;0.52;;
39612;SDS011;25303;48.896;13.342;2023-03-09T13:50:57;2.70;;;0.50;;
39612;SDS011;25303;48.896;13.342;2023-03-09T13:53:43;2.08;;;0.50;;
39612;SDS011;25303;48.896;13.342;2023-03-09T13:56:26;2.40;;;0.50;;
39612;SDS011;25303;48.896;13.342;2023-03-09T13:59:12;1.67;;;0.47;;
39612;SDS011;25303;48.896;13.342;2023-03-09T14:02:00;2.80;;;0.60;;
39612;SDS011;25303;48.896;13.342;2023-03-09T14:04:44;4.78;;;0.80;;
39612;SDS011;25303;48.896;13.342;2023-03-09T14:07:31;4.85;;;0.63;;
39612;SDS011;25303;48.896;13.342;2023-03-09T14:10:18;3.10;;;0.70;;
39612;SDS011;25303;48.896;13.342;2023-03-09T14:13:05;1.38;;;0.50;;
39612;SDS011;25303;48.896;13.342;2023-03-09T14:15:58;2.13;;;0.60;;
39612;SDS011;25303;48.896;13.342;2023-03-09T14:18:46;3.13;;;0.70;;
39612;SDS011;25303;48.896;13.342;2023-03-09T14:21:30;3.53;;;0.75;;
39612;SDS011;25303;48.896;13.342;2023-03-09T14:24:22;2.72;;;0.70;;
39612;SDS011;25303;48.896;13.342;2023-03-09T14:27:10;2.60;;;0.70;;
39612;SDS011;25303;48.896;13.342;2023-03-09T14:29:55;2.15;;;0.73;;
39612;SDS011;25303;48.896;13.342;2023-03-09T14:32:54;3.80;;;0.80;;
39612;SDS011;25303;48.896;13.342;2023-03-09T14:35:38;4.07;;;0.90;;
39612;SDS011;25303;48.896;13.342;2023-03-09T14:38:22;2.83;;;1.10;;
39612;SDS011;25303;48.896;13.342;2023-03-09T14:41:14;2.83;;;1.00;;
39612;SDS011;25303;48.896;13.342;2023-03-09T14:44:01;2.30;;;0.65;;
39612;SDS011;25303;48.896;13.342;2023-03-09T14:46:44;2.83;;;0.75;;
39612;SDS011;25303;48.896;13.342;2023-03-09T14:49:27;5.68;;;0.88;;
39612;SDS011;25303;48.896;13.342;2023-03-09T14:52:10;3.33;;;0.77;;
39612;SDS011;25303;48.896;13.342;2023-03-09T14:54:54;1.70;;;0.77;;
39612;SDS011;25303;48.896;13.342;2023-03-09T14:57:38;2.58;;;0.77;;
39612;SDS011;25303;48.896;13.342;2023-03-09T15:00:21;2.38;;;0.82;;
39612;SDS011;25303;48.896;13.342;2023-03-09T15:03:05;2.65;;;0.70;;
39612;SDS011;25303;48.896;13.342;2023-03-09T15:05:49;3.58;;;1.00;;
39612;SDS011;25303;48.896;13.342;2023-03-09T15:08:32;4.00;;;0.95;;
39612;SDS011;25303;48.896;13.342;2023-03-09T15:11:15;2.80;;;0.88;;
39612;SDS011;25303;48.896;13.342;2023-03-09T15:13:59;3.78;;;1.20;;
39612;SDS011;25303;48.896;13.342;2023-03-09T15:16:44;4.88;;;0.95;;
39612;SDS011;25303;48.896;13.342;2023-03-09T15:19:27;4.00;;;1.00;;
39612;SDS011;25303;48.896;13.342;2023-03-09T15:22:10;3.25;;;1.00;;
39612;SDS011;25303;48.896;13.342;2023-03-09T15:24:56;3.47;;;1.10;;
39612;SDS011;25303;48.896;13.342;2023-03-09T15:27:39;2.80;;;1.00;;
39612;SDS011;25303;48.896;13.342;2023-03-09T15:33:08;4.43;;;0.77;;
39612;SDS011;25303;48.896;13.342;2023-03-09T15:35:51;3.83;;;0.80;;
39612;SDS011;25303;48.896;13.342;2023-03-09T15:38:34;3.08;;;0.88;;
39612;SDS011;25303;48.896;13.342;2023-03-09T15:41:18;2.95;;;0.90;;
39612;SDS011;25303;48.896;13.342;2023-03-09T15:44:01;2.25;;;0.82;;
39612;SDS011;25303;48.896;13.342;2023-03-09T15:46:45;3.33;;;0.80;;
39612;SDS011;25303;48.896;13.342;2023-03-09T15:49:28;1.85;;;0.68;;
39612;SDS011;25303;48.896;13.342;2023-03-09T15:52:11;2.00;;;0.80;;
39612;SDS011;25303;48.896;13.342;2023-03-09T15:54:54;3.05;;;0.68;;
39612;SDS011;25303;48.896;13.342;2023-03-09T15:57:37;2.22;;;0.68;;
39612;SDS011;25303;48.896;13.342;2023-03-09T16:00:20;1.35;;;0.60;;
39612;SDS011;25303;48.896;13.342;2023-03-09T16:03:05;2.05;;;0.57;;
39612;SDS011;25303;48.896;13.342;2023-03-09T16:05:48;2.13;;;0.60;;
39612;SDS011;25303;48.896;13.342;2023-03-09T16:08:31;2.50;;;0.80;;
39612;SDS011;25303;48.896;13.342;2023-03-09T16:11:14;1.48;;;0.50;;
39612;SDS011;25303;48.896;13.342;2023-03-09T16:13:57;4.20;;;0.73;;
39612;SDS011;25303;48.896;13.342;2023-03-09T16:16:40;1.63;;;0.60;;
39612;SDS011;25303;48.896;13.342;2023-03-09T16:19:25;3.58;;;1.00;;
39612;SDS011;25303;48.896;13.342;2023-03-09T16:22:07;3.15;;;0.60;;
39612;SDS011;25303;48.896;13.342;2023-03-09T16:24:51;3.45;;;0.55;;
39612;SDS011;25303;48.896;13.342;2023-03-09T16:27:34;2.90;;;0.57;;
39612;SDS011;25303;48.896;13.342;2023-03-09T16:30:17;2.75;;;0.60;;
39612;SDS011;25303;48.896;13.342;2023-03-09T16:33:00;4.18;;;0.65;;
39612;SDS011;25303;48.896;13.342;2023-03-09T16:35:45;1.73;;;0.60;;
39612;SDS011;25303;48.896;13.342;2023-03-09T16:38:28;1.85;;;0.47;;
39612;SDS011;25303;48.896;13.342;2023-03-09T16:41:12;2.47;;;0.60;;
39612;SDS011;25303;48.896;13.342;2023-03-09T16:43:56;1.83;;;0.70;;
39612;SDS011;25303;48.896;13.342;2023-03-09T16:46:39;2.17;;;0.63;;
39612;SDS011;25303;48.896;13.342;2023-03-09T16:49:22;2.08;;;0.60;;
39612;SDS011;25303;48.896;13.342;2023-03-09T16:52:07;3.83;;;0.90;;